Airfield :
LOGIN :

Register | Disclaimer

   EN    FR    IT 

 










Legend :    VFR   Marginal VFR   IFR   Intensive IFR   Very Intensive IFR
Visi :
Ceiling :
>= 8 km
>= 3000ft
5 to 8 km
1000 to 3000 ft
1500m to 5 km
500 to 1000 ft
800 to 1500m
200 to 500 ft
< 800m
< 200 ft
Symbols :   Thunderstorms  Fog  Heavy snow  Heavy precipitations  Wind > 20 kt
SIGMETs :     Misc.  Thunderstorms  Icing  Turbulence  Mountain Waves  Volcanic Ashes







- Airport Elevation : 287 ft
- Download approach charts


LFRL - Lanveoc Poulmic

CURRENT METAR :
  • 161030Z AUTO 17008KT 6000 OVC002 11/11 Q1024

EXPIRED METARs :
  • 161000Z AUTO 16007KT 4300 BR OVC002 11/10 Q1024
  • 160930Z AUTO 18007KT 140V210 0900 0800 R23/1300U R05/1100U FG VV/// 10/10 Q1024
  • 160900Z AUTO 18007KT 0400 0350 R23/0500N R05/0450N FG VV/// 10/10 Q1024
  • 160830Z AUTO 17008KT 0450 R23/0550N R05/0550N FG VV/// 10/09 Q1024
  • 160800Z AUTO 17008KT 0450 0400 R23/0550N R05/0500N FG VV/// 10/09 Q1024

TAF TAF LFRL
Valid from the 15 at 12:00 until the 16 at 12:00 UTC


151100Z 1512/1612 16010KT CAVOK
BECMG 1521/1522 BKN010
TEMPO 1600/1606 BKN002
No reported NOTAMs for that airfield.



MET'MAP, your aeronautical weather chart ! - Copyright ORBIFLY December 2007 - Disclaimer

ORBIFLY MET'MAP TEAM :

Programming & Development : Alexandra Zaïnal
Concept & Development : Baudouin d'Aumeries
Co-Development & Prog : Marc-Olivier Méhu
Technical & hardware support : Manuel Goepfert

Contact : metmap@orbifly.com




SOURCES & CREDITS :

   NOAA